sensor_id;sensor_type;location;lat;lon;timestamp;P1;durP1;ratioP1;P2;durP2;ratioP2
31760;SDS011;18335;51.486;7.562;2024-02-26T00:01:59;3.75;;;1.48;;
31760;SDS011;18335;51.486;7.562;2024-02-26T00:04:26;5.22;;;1.83;;
31760;SDS011;18335;51.486;7.562;2024-02-26T00:06:53;8.55;;;2.63;;
31760;SDS011;18335;51.486;7.562;2024-02-26T00:09:21;4.22;;;1.50;;
31760;SDS011;18335;51.486;7.562;2024-02-26T00:11:48;4.10;;;1.55;;
31760;SDS011;18335;51.486;7.562;2024-02-26T00:14:14;4.20;;;1.60;;
31760;SDS011;18335;51.486;7.562;2024-02-26T00:16:41;3.75;;;1.42;;
31760;SDS011;18335;51.486;7.562;2024-02-26T00:19:11;4.50;;;1.48;;
31760;SDS011;18335;51.486;7.562;2024-02-26T00:21:39;4.38;;;1.52;;
31760;SDS011;18335;51.486;7.562;2024-02-26T00:24:06;5.60;;;1.70;;
31760;SDS011;18335;51.486;7.562;2024-02-26T00:26:33;4.20;;;1.40;;
31760;SDS011;18335;51.486;7.562;2024-02-26T00:29:00;3.15;;;1.38;;
31760;SDS011;18335;51.486;7.562;2024-02-26T00:31:27;4.10;;;1.58;;
31760;SDS011;18335;51.486;7.562;2024-02-26T00:33:53;5.82;;;1.83;;
31760;SDS011;18335;51.486;7.562;2024-02-26T00:36:21;4.60;;;1.58;;
31760;SDS011;18335;51.486;7.562;2024-02-26T00:38:48;5.55;;;1.50;;
31760;SDS011;18335;51.486;7.562;2024-02-26T00:41:16;4.95;;;1.55;;
31760;SDS011;18335;51.486;7.562;2024-02-26T00:43:43;4.85;;;1.70;;
31760;SDS011;18335;51.486;7.562;2024-02-26T00:46:10;2.38;;;1.30;;
31760;SDS011;18335;51.486;7.562;2024-02-26T00:48:37;4.80;;;1.73;;
31760;SDS011;18335;51.486;7.562;2024-02-26T00:51:03;3.53;;;1.20;;
31760;SDS011;18335;51.486;7.562;2024-02-26T00:53:32;3.38;;;1.40;;
31760;SDS011;18335;51.486;7.562;2024-02-26T00:55:59;3.67;;;1.30;;
31760;SDS011;18335;51.486;7.562;2024-02-26T00:58:26;6.00;;;1.70;;
31760;SDS011;18335;51.486;7.562;2024-02-26T01:00:53;4.85;;;1.63;;
31760;SDS011;18335;51.486;7.562;2024-02-26T01:03:20;5.07;;;1.23;;
31760;SDS011;18335;51.486;7.562;2024-02-26T01:05:46;5.03;;;1.50;;
31760;SDS011;18335;51.486;7.562;2024-02-26T01:08:13;4.28;;;1.50;;
31760;SDS011;18335;51.486;7.562;2024-02-26T01:10:42;4.65;;;1.30;;
31760;SDS011;18335;51.486;7.562;2024-02-26T01:13:08;3.78;;;1.33;;
31760;SDS011;18335;51.486;7.562;2024-02-26T01:15:35;2.22;;;1.30;;
31760;SDS011;18335;51.486;7.562;2024-02-26T01:18:02;3.22;;;1.23;;
31760;SDS011;18335;51.486;7.562;2024-02-26T01:20:28;4.45;;;1.35;;
31760;SDS011;18335;51.486;7.562;2024-02-26T01:22:55;4.70;;;1.63;;
31760;SDS011;18335;51.486;7.562;2024-02-26T01:25:22;3.85;;;1.60;;
31760;SDS011;18335;51.486;7.562;2024-02-26T01:27:50;5.43;;;1.15;;
31760;SDS011;18335;51.486;7.562;2024-02-26T01:30:16;2.97;;;1.55;;
31760;SDS011;18335;51.486;7.562;2024-02-26T01:32:43;5.05;;;2.00;;
31760;SDS011;18335;51.486;7.562;2024-02-26T01:35:10;4.63;;;1.40;;
31760;SDS011;18335;51.486;7.562;2024-02-26T01:37:37;3.03;;;1.55;;
31760;SDS011;18335;51.486;7.562;2024-02-26T01:40:05;2.45;;;1.30;;
31760;SDS011;18335;51.486;7.562;2024-02-26T01:42:32;2.92;;;1.08;;
31760;SDS011;18335;51.486;7.562;2024-02-26T01:45:00;5.57;;;1.67;;
31760;SDS011;18335;51.486;7.562;2024-02-26T01:47:28;4.03;;;1.30;;
31760;SDS011;18335;51.486;7.562;2024-02-26T01:49:55;2.67;;;1.23;;
31760;SDS011;18335;51.486;7.562;2024-02-26T01:52:22;2.38;;;1.33;;
31760;SDS011;18335;51.486;7.562;2024-02-26T01:54:49;3.58;;;1.17;;
31760;SDS011;18335;51.486;7.562;2024-02-26T01:57:16;3.72;;;1.27;;
31760;SDS011;18335;51.486;7.562;2024-02-26T01:59:44;4.15;;;1.48;;
31760;SDS011;18335;51.486;7.562;2024-02-26T02:02:12;4.25;;;1.75;;
31760;SDS011;18335;51.486;7.562;2024-02-26T02:04:41;8.07;;;1.40;;
31760;SDS011;18335;51.486;7.562;2024-02-26T02:07:08;3.47;;;1.60;;
31760;SDS011;18335;51.486;7.562;2024-02-26T02:09:35;4.78;;;1.77;;
31760;SDS011;18335;51.486;7.562;2024-02-26T02:12:02;3.40;;;1.67;;
31760;SDS011;18335;51.486;7.562;2024-02-26T02:14:29;2.90;;;1.40;;
31760;SDS011;18335;51.486;7.562;2024-02-26T02:16:56;3.53;;;1.40;;
31760;SDS011;18335;51.486;7.562;2024-02-26T02:19:24;5.20;;;1.40;;
31760;SDS011;18335;51.486;7.562;2024-02-26T02:21:52;4.63;;;1.67;;
31760;SDS011;18335;51.486;7.562;2024-02-26T02:24:18;4.68;;;1.40;;
31760;SDS011;18335;51.486;7.562;2024-02-26T02:26:45;5.30;;;1.65;;
31760;SDS011;18335;51.486;7.562;2024-02-26T02:29:12;3.83;;;1.38;;
31760;SDS011;18335;51.486;7.562;2024-02-26T02:31:40;3.83;;;1.83;;
31760;SDS011;18335;51.486;7.562;2024-02-26T02:34:08;3.35;;;1.60;;
31760;SDS011;18335;51.486;7.562;2024-02-26T02:36:47;4.30;;;1.42;;
31760;SDS011;18335;51.486;7.562;2024-02-26T02:39:16;4.07;;;1.50;;
31760;SDS011;18335;51.486;7.562;2024-02-26T02:41:43;5.00;;;1.83;;
31760;SDS011;18335;51.486;7.562;2024-02-26T02:44:10;5.10;;;1.60;;
31760;SDS011;18335;51.486;7.562;2024-02-26T02:46:37;4.20;;;1.77;;
31760;SDS011;18335;51.486;7.562;2024-02-26T02:49:04;5.40;;;1.65;;
31760;SDS011;18335;51.486;7.562;2024-02-26T02:51:30;4.30;;;1.90;;
31760;SDS011;18335;51.486;7.562;2024-02-26T02:53:57;3.45;;;1.58;;
31760;SDS011;18335;51.486;7.562;2024-02-26T02:56:25;5.65;;;2.42;;
31760;SDS011;18335;51.486;7.562;2024-02-26T02:58:52;4.28;;;1.80;;
31760;SDS011;18335;51.486;7.562;2024-02-26T03:01:18;5.47;;;2.10;;
31760;SDS011;18335;51.486;7.562;2024-02-26T03:03:45;4.47;;;2.00;;
31760;SDS011;18335;51.486;7.562;2024-02-26T03:06:12;3.58;;;1.73;;
31760;SDS011;18335;51.486;7.562;2024-02-26T03:08:38;4.15;;;1.52;;
31760;SDS011;18335;51.486;7.562;2024-02-26T03:11:06;4.28;;;1.77;;
31760;SDS011;18335;51.486;7.562;2024-02-26T03:13:34;4.35;;;1.67;;
31760;SDS011;18335;51.486;7.562;2024-02-26T03:16:04;4.53;;;1.85;;
31760;SDS011;18335;51.486;7.562;2024-02-26T03:18:31;5.40;;;1.60;;
31760;SDS011;18335;51.486;7.562;2024-02-26T03:20:57;5.43;;;1.67;;
31760;SDS011;18335;51.486;7.562;2024-02-26T03:23:24;5.95;;;2.00;;
31760;SDS011;18335;51.486;7.562;2024-02-26T03:25:51;7.03;;;1.90;;
31760;SDS011;18335;51.486;7.562;2024-02-26T03:28:17;4.20;;;1.83;;
31760;SDS011;18335;51.486;7.562;2024-02-26T03:30:45;6.82;;;2.00;;
31760;SDS011;18335;51.486;7.562;2024-02-26T03:33:12;4.35;;;1.45;;
31760;SDS011;18335;51.486;7.562;2024-02-26T03:35:39;6.38;;;1.95;;
31760;SDS011;18335;51.486;7.562;2024-02-26T03:38:06;3.85;;;1.75;;
31760;SDS011;18335;51.486;7.562;2024-02-26T03:40:32;5.60;;;1.98;;
31760;SDS011;18335;51.486;7.562;2024-02-26T03:42:59;7.30;;;2.15;;
31760;SDS011;18335;51.486;7.562;2024-02-26T03:45:26;6.00;;;1.70;;
31760;SDS011;18335;51.486;7.562;2024-02-26T03:47:54;4.93;;;1.80;;
31760;SDS011;18335;51.486;7.562;2024-02-26T03:50:21;5.38;;;1.80;;
31760;SDS011;18335;51.486;7.562;2024-02-26T03:52:47;6.57;;;1.88;;
31760;SDS011;18335;51.486;7.562;2024-02-26T03:55:14;4.80;;;1.85;;
31760;SDS011;18335;51.486;7.562;2024-02-26T03:57:43;3.45;;;2.30;;
31760;SDS011;18335;51.486;7.562;2024-02-26T04:00:11;5.68;;;1.40;;
31760;SDS011;18335;51.486;7.562;2024-02-26T04:02:38;3.55;;;1.88;;
31760;SDS011;18335;51.486;7.562;2024-02-26T04:05:08;5.97;;;2.00;;
31760;SDS011;18335;51.486;7.562;2024-02-26T04:07:35;3.40;;;1.58;;
31760;SDS011;18335;51.486;7.562;2024-02-26T04:10:02;3.85;;;1.77;;
31760;SDS011;18335;51.486;7.562;2024-02-26T04:12:30;3.65;;;1.65;;
31760;SDS011;18335;51.486;7.562;2024-02-26T04:14:57;5.47;;;1.98;;
31760;SDS011;18335;51.486;7.562;2024-02-26T04:17:23;4.10;;;1.75;;
31760;SDS011;18335;51.486;7.562;2024-02-26T04:19:50;4.25;;;2.10;;
31760;SDS011;18335;51.486;7.562;2024-02-26T04:22:18;4.68;;;1.70;;
31760;SDS011;18335;51.486;7.562;2024-02-26T04:24:45;4.50;;;1.70;;
31760;SDS011;18335;51.486;7.562;2024-02-26T04:27:12;2.63;;;1.60;;
31760;SDS011;18335;51.486;7.562;2024-02-26T04:29:39;4.00;;;1.60;;
31760;SDS011;18335;51.486;7.562;2024-02-26T04:32:06;4.40;;;2.00;;
31760;SDS011;18335;51.486;7.562;2024-02-26T04:34:32;3.25;;;1.67;;
31760;SDS011;18335;51.486;7.562;2024-02-26T04:36:59;4.63;;;1.70;;
31760;SDS011;18335;51.486;7.562;2024-02-26T04:39:27;3.97;;;1.85;;
31760;SDS011;18335;51.486;7.562;2024-02-26T04:41:54;5.28;;;2.00;;
31760;SDS011;18335;51.486;7.562;2024-02-26T04:44:21;3.33;;;1.35;;
31760;SDS011;18335;51.486;7.562;2024-02-26T04:46:47;3.78;;;1.67;;
31760;SDS011;18335;51.486;7.562;2024-02-26T04:49:14;4.97;;;1.60;;
31760;SDS011;18335;51.486;7.562;2024-02-26T04:51:41;4.57;;;1.63;;
31760;SDS011;18335;51.486;7.562;2024-02-26T04:54:08;5.05;;;2.38;;
31760;SDS011;18335;51.486;7.562;2024-02-26T04:56:36;5.38;;;1.95;;
31760;SDS011;18335;51.486;7.562;2024-02-26T04:59:02;3.20;;;1.70;;
31760;SDS011;18335;51.486;7.562;2024-02-26T05:01:29;4.57;;;1.70;;
31760;SDS011;18335;51.486;7.562;2024-02-26T05:03:56;3.53;;;1.30;;
31760;SDS011;18335;51.486;7.562;2024-02-26T05:06:23;8.65;;;3.35;;
31760;SDS011;18335;51.486;7.562;2024-02-26T05:08:50;4.03;;;1.70;;
31760;SDS011;18335;51.486;7.562;2024-02-26T05:11:17;4.00;;;1.55;;
31760;SDS011;18335;51.486;7.562;2024-02-26T05:13:47;4.32;;;1.60;;
31760;SDS011;18335;51.486;7.562;2024-02-26T05:16:14;4.18;;;1.90;;
31760;SDS011;18335;51.486;7.562;2024-02-26T05:18:41;2.92;;;1.20;;
31760;SDS011;18335;51.486;7.562;2024-02-26T05:21:07;4.72;;;1.65;;
31760;SDS011;18335;51.486;7.562;2024-02-26T05:23:34;4.15;;;1.50;;
31760;SDS011;18335;51.486;7.562;2024-02-26T05:26:01;2.60;;;1.30;;
31760;SDS011;18335;51.486;7.562;2024-02-26T05:28:28;4.97;;;1.58;;
31760;SDS011;18335;51.486;7.562;2024-02-26T05:30:56;4.47;;;1.65;;
31760;SDS011;18335;51.486;7.562;2024-02-26T05:33:23;3.67;;;1.67;;
31760;SDS011;18335;51.486;7.562;2024-02-26T05:35:50;4.32;;;2.00;;
31760;SDS011;18335;51.486;7.562;2024-02-26T05:38:17;5.68;;;1.55;;
31760;SDS011;18335;51.486;7.562;2024-02-26T05:40:43;7.68;;;1.80;;
31760;SDS011;18335;51.486;7.562;2024-02-26T05:43:11;4.68;;;1.70;;
31760;SDS011;18335;51.486;7.562;2024-02-26T05:45:40;3.35;;;1.80;;
31760;SDS011;18335;51.486;7.562;2024-02-26T05:48:08;3.33;;;1.60;;
31760;SDS011;18335;51.486;7.562;2024-02-26T05:50:35;7.88;;;1.70;;
31760;SDS011;18335;51.486;7.562;2024-02-26T05:53:02;4.03;;;1.88;;
31760;SDS011;18335;51.486;7.562;2024-02-26T05:55:29;3.97;;;1.45;;
31760;SDS011;18335;51.486;7.562;2024-02-26T05:57:55;4.55;;;1.60;;
31760;SDS011;18335;51.486;7.562;2024-02-26T06:00:22;6.35;;;1.98;;
31760;SDS011;18335;51.486;7.562;2024-02-26T06:02:49;2.97;;;1.33;;
31760;SDS011;18335;51.486;7.562;2024-02-26T06:05:17;3.40;;;1.50;;
31760;SDS011;18335;51.486;7.562;2024-02-26T06:07:43;3.83;;;1.60;;
31760;SDS011;18335;51.486;7.562;2024-02-26T06:10:10;6.15;;;2.20;;
31760;SDS011;18335;51.486;7.562;2024-02-26T06:12:39;6.05;;;2.00;;
31760;SDS011;18335;51.486;7.562;2024-02-26T06:15:06;5.22;;;1.95;;
31760;SDS011;18335;51.486;7.562;2024-02-26T06:17:34;7.60;;;2.30;;
31760;SDS011;18335;51.486;7.562;2024-02-26T06:20:01;6.00;;;1.83;;
31760;SDS011;18335;51.486;7.562;2024-02-26T06:22:31;3.75;;;1.70;;
31760;SDS011;18335;51.486;7.562;2024-02-26T06:24:57;5.72;;;1.55;;
31760;SDS011;18335;51.486;7.562;2024-02-26T06:27:24;5.40;;;2.03;;
31760;SDS011;18335;51.486;7.562;2024-02-26T06:29:51;5.07;;;2.08;;
31760;SDS011;18335;51.486;7.562;2024-02-26T06:32:18;5.30;;;2.13;;
31760;SDS011;18335;51.486;7.562;2024-02-26T06:34:44;4.78;;;1.70;;
31760;SDS011;18335;51.486;7.562;2024-02-26T06:37:11;4.28;;;1.98;;
31760;SDS011;18335;51.486;7.562;2024-02-26T06:39:39;4.25;;;2.10;;
31760;SDS011;18335;51.486;7.562;2024-02-26T06:42:06;5.75;;;2.10;;
31760;SDS011;18335;51.486;7.562;2024-02-26T06:44:33;4.82;;;2.00;;
31760;SDS011;18335;51.486;7.562;2024-02-26T06:47:00;5.88;;;1.98;;
31760;SDS011;18335;51.486;7.562;2024-02-26T06:49:27;4.07;;;1.98;;
31760;SDS011;18335;51.486;7.562;2024-02-26T06:51:54;6.22;;;2.25;;
31760;SDS011;18335;51.486;7.562;2024-02-26T06:54:21;5.63;;;2.13;;
31760;SDS011;18335;51.486;7.562;2024-02-26T06:56:49;6.10;;;1.85;;
31760;SDS011;18335;51.486;7.562;2024-02-26T06:59:15;4.53;;;2.05;;
31760;SDS011;18335;51.486;7.562;2024-02-26T07:01:42;8.18;;;2.80;;
31760;SDS011;18335;51.486;7.562;2024-02-26T07:04:09;6.50;;;2.83;;
31760;SDS011;18335;51.486;7.562;2024-02-26T07:06:36;6.55;;;2.22;;
31760;SDS011;18335;51.486;7.562;2024-02-26T07:09:03;8.30;;;2.45;;
31760;SDS011;18335;51.486;7.562;2024-02-26T07:11:30;4.95;;;1.77;;
31760;SDS011;18335;51.486;7.562;2024-02-26T07:13:58;5.57;;;2.08;;
31760;SDS011;18335;51.486;7.562;2024-02-26T07:16:26;6.78;;;2.28;;
31760;SDS011;18335;51.486;7.562;2024-02-26T07:18:53;5.47;;;2.25;;
31760;SDS011;18335;51.486;7.562;2024-02-26T07:21:20;5.45;;;1.90;;
31760;SDS011;18335;51.486;7.562;2024-02-26T07:23:46;6.22;;;1.90;;
31760;SDS011;18335;51.486;7.562;2024-02-26T07:26:13;5.15;;;2.55;;
31760;SDS011;18335;51.486;7.562;2024-02-26T07:28:40;3.67;;;1.83;;
31760;SDS011;18335;51.486;7.562;2024-02-26T07:31:08;6.78;;;2.22;;
31760;SDS011;18335;51.486;7.562;2024-02-26T07:33:35;7.10;;;2.28;;
31760;SDS011;18335;51.486;7.562;2024-02-26T07:36:02;5.40;;;2.20;;
31760;SDS011;18335;51.486;7.562;2024-02-26T07:38:29;5.93;;;2.08;;
31760;SDS011;18335;51.486;7.562;2024-02-26T07:40:56;6.50;;;2.20;;
31760;SDS011;18335;51.486;7.562;2024-02-26T07:43:23;5.82;;;2.28;;
31760;SDS011;18335;51.486;7.562;2024-02-26T07:45:49;7.38;;;2.30;;
31760;SDS011;18335;51.486;7.562;2024-02-26T07:48:17;8.50;;;3.50;;
31760;SDS011;18335;51.486;7.562;2024-02-26T07:50:44;7.18;;;2.55;;
31760;SDS011;18335;51.486;7.562;2024-02-26T07:53:11;7.80;;;2.58;;
31760;SDS011;18335;51.486;7.562;2024-02-26T07:55:37;7.32;;;2.70;;
31760;SDS011;18335;51.486;7.562;2024-02-26T07:58:04;8.68;;;3.10;;
31760;SDS011;18335;51.486;7.562;2024-02-26T08:00:31;13.80;;;4.00;;
31760;SDS011;18335;51.486;7.562;2024-02-26T08:02:57;6.43;;;2.22;;
31760;SDS011;18335;51.486;7.562;2024-02-26T08:05:26;9.30;;;2.85;;
31760;SDS011;18335;51.486;7.562;2024-02-26T08:07:52;7.05;;;2.65;;
31760;SDS011;18335;51.486;7.562;2024-02-26T08:10:20;6.72;;;2.50;;
31760;SDS011;18335;51.486;7.562;2024-02-26T08:12:47;6.38;;;2.30;;
31760;SDS011;18335;51.486;7.562;2024-02-26T08:15:14;8.10;;;3.30;;
31760;SDS011;18335;51.486;7.562;2024-02-26T08:17:41;8.52;;;3.00;;
31760;SDS011;18335;51.486;7.562;2024-02-26T08:20:08;4.93;;;2.35;;
31760;SDS011;18335;51.486;7.562;2024-02-26T08:22:37;6.15;;;2.33;;
31760;SDS011;18335;51.486;7.562;2024-02-26T08:25:04;8.88;;;2.95;;
31760;SDS011;18335;51.486;7.562;2024-02-26T08:27:34;7.57;;;2.45;;
31760;SDS011;18335;51.486;7.562;2024-02-26T08:30:01;8.88;;;2.78;;
31760;SDS011;18335;51.486;7.562;2024-02-26T08:32:28;5.97;;;2.50;;
31760;SDS011;18335;51.486;7.562;2024-02-26T08:34:55;8.18;;;2.47;;
31760;SDS011;18335;51.486;7.562;2024-02-26T08:37:21;9.98;;;2.92;;
31760;SDS011;18335;51.486;7.562;2024-02-26T08:39:49;7.55;;;2.50;;
31760;SDS011;18335;51.486;7.562;2024-02-26T08:42:16;5.68;;;2.42;;
31760;SDS011;18335;51.486;7.562;2024-02-26T08:44:43;6.93;;;2.78;;
31760;SDS011;18335;51.486;7.562;2024-02-26T08:47:09;9.65;;;2.40;;
31760;SDS011;18335;51.486;7.562;2024-02-26T08:49:36;6.80;;;2.67;;
31760;SDS011;18335;51.486;7.562;2024-02-26T08:52:04;6.88;;;2.83;;
31760;SDS011;18335;51.486;7.562;2024-02-26T08:54:31;6.22;;;2.78;;
31760;SDS011;18335;51.486;7.562;2024-02-26T08:57:00;7.53;;;2.95;;
31760;SDS011;18335;51.486;7.562;2024-02-26T08:59:27;9.38;;;2.55;;
31760;SDS011;18335;51.486;7.562;2024-02-26T09:01:53;8.25;;;3.10;;
31760;SDS011;18335;51.486;7.562;2024-02-26T09:04:20;8.48;;;3.08;;
31760;SDS011;18335;51.486;7.562;2024-02-26T09:06:47;8.18;;;3.20;;
31760;SDS011;18335;51.486;7.562;2024-02-26T09:09:14;8.48;;;3.33;;
31760;SDS011;18335;51.486;7.562;2024-02-26T09:11:41;7.43;;;3.00;;
31760;SDS011;18335;51.486;7.562;2024-02-26T09:14:09;7.68;;;2.85;;
31760;SDS011;18335;51.486;7.562;2024-02-26T09:16:36;6.63;;;2.80;;
31760;SDS011;18335;51.486;7.562;2024-02-26T09:19:02;6.20;;;2.83;;
31760;SDS011;18335;51.486;7.562;2024-02-26T09:21:29;7.22;;;2.95;;
31760;SDS011;18335;51.486;7.562;2024-02-26T09:23:56;6.60;;;2.92;;
31760;SDS011;18335;51.486;7.562;2024-02-26T09:26:23;8.38;;;2.97;;
31760;SDS011;18335;51.486;7.562;2024-02-26T09:28:49;8.23;;;2.70;;
31760;SDS011;18335;51.486;7.562;2024-02-26T09:31:18;7.82;;;3.35;;
31760;SDS011;18335;51.486;7.562;2024-02-26T09:33:45;9.40;;;2.97;;
31760;SDS011;18335;51.486;7.562;2024-02-26T09:36:12;10.13;;;3.47;;
31760;SDS011;18335;51.486;7.562;2024-02-26T09:38:39;6.78;;;2.67;;
31760;SDS011;18335;51.486;7.562;2024-02-26T09:41:05;7.97;;;3.25;;
31760;SDS011;18335;51.486;7.562;2024-02-26T09:43:34;8.70;;;3.83;;
31760;SDS011;18335;51.486;7.562;2024-02-26T09:46:01;7.13;;;3.78;;
31760;SDS011;18335;51.486;7.562;2024-02-26T09:48:30;9.05;;;3.63;;
31760;SDS011;18335;51.486;7.562;2024-02-26T09:50:58;8.73;;;3.60;;
31760;SDS011;18335;51.486;7.562;2024-02-26T09:53:27;6.72;;;3.22;;
31760;SDS011;18335;51.486;7.562;2024-02-26T09:55:57;7.30;;;3.42;;
31760;SDS011;18335;51.486;7.562;2024-02-26T09:58:24;7.18;;;3.33;;
31760;SDS011;18335;51.486;7.562;2024-02-26T10:00:53;9.32;;;3.65;;
31760;SDS011;18335;51.486;7.562;2024-02-26T10:03:24;8.27;;;3.25;;
31760;SDS011;18335;51.486;7.562;2024-02-26T10:05:56;8.55;;;3.33;;
31760;SDS011;18335;51.486;7.562;2024-02-26T10:08:23;7.80;;;3.38;;
31760;SDS011;18335;51.486;7.562;2024-02-26T10:10:50;9.20;;;3.40;;
31760;SDS011;18335;51.486;7.562;2024-02-26T10:13:17;8.40;;;4.13;;
31760;SDS011;18335;51.486;7.562;2024-02-26T10:15:45;6.68;;;3.15;;
31760;SDS011;18335;51.486;7.562;2024-02-26T10:18:12;7.97;;;3.40;;
31760;SDS011;18335;51.486;7.562;2024-02-26T10:20:39;9.10;;;3.20;;
31760;SDS011;18335;51.486;7.562;2024-02-26T10:23:07;8.07;;;3.47;;
31760;SDS011;18335;51.486;7.562;2024-02-26T10:25:34;8.32;;;3.75;;
31760;SDS011;18335;51.486;7.562;2024-02-26T10:28:01;10.95;;;4.50;;
31760;SDS011;18335;51.486;7.562;2024-02-26T10:30:28;7.90;;;3.78;;
31760;SDS011;18335;51.486;7.562;2024-02-26T10:32:55;10.23;;;3.80;;
31760;SDS011;18335;51.486;7.562;2024-02-26T10:35:23;10.07;;;4.47;;
31760;SDS011;18335;51.486;7.562;2024-02-26T10:37:50;10.85;;;4.93;;
31760;SDS011;18335;51.486;7.562;2024-02-26T10:40:19;8.82;;;3.70;;
31760;SDS011;18335;51.486;7.562;2024-02-26T10:42:45;9.32;;;4.40;;
31760;SDS011;18335;51.486;7.562;2024-02-26T10:45:12;9.50;;;4.40;;
31760;SDS011;18335;51.486;7.562;2024-02-26T10:47:39;10.65;;;5.10;;
31760;SDS011;18335;51.486;7.562;2024-02-26T10:50:07;10.07;;;4.72;;
31760;SDS011;18335;51.486;7.562;2024-02-26T10:52:35;10.32;;;5.28;;
31760;SDS011;18335;51.486;7.562;2024-02-26T10:55:03;11.27;;;5.32;;
31760;SDS011;18335;51.486;7.562;2024-02-26T10:57:34;14.25;;;5.00;;
31760;SDS011;18335;51.486;7.562;2024-02-26T11:00:04;11.07;;;4.85;;
31760;SDS011;18335;51.486;7.562;2024-02-26T11:02:36;11.85;;;5.35;;
31760;SDS011;18335;51.486;7.562;2024-02-26T11:05:03;11.25;;;5.32;;
31760;SDS011;18335;51.486;7.562;2024-02-26T11:07:30;12.32;;;5.32;;
31760;SDS011;18335;51.486;7.562;2024-02-26T11:09:58;13.45;;;6.93;;
31760;SDS011;18335;51.486;7.562;2024-02-26T11:12:27;11.48;;;5.40;;
31760;SDS011;18335;51.486;7.562;2024-02-26T11:14:56;11.63;;;5.50;;
31760;SDS011;18335;51.486;7.562;2024-02-26T11:17:27;11.65;;;6.53;;
31760;SDS011;18335;51.486;7.562;2024-02-26T11:19:56;14.32;;;6.25;;
31760;SDS011;18335;51.486;7.562;2024-02-26T11:22:24;12.90;;;5.72;;
31760;SDS011;18335;51.486;7.562;2024-02-26T11:24:52;10.95;;;5.65;;
31760;SDS011;18335;51.486;7.562;2024-02-26T11:27:21;12.73;;;6.70;;
31760;SDS011;18335;51.486;7.562;2024-02-26T11:29:56;14.60;;;6.60;;
31760;SDS011;18335;51.486;7.562;2024-02-26T11:32:26;12.73;;;5.78;;
31760;SDS011;18335;51.486;7.562;2024-02-26T11:34:55;11.38;;;5.57;;
31760;SDS011;18335;51.486;7.562;2024-02-26T11:37:22;15.30;;;6.15;;
31760;SDS011;18335;51.486;7.562;2024-02-26T11:39:51;14.15;;;6.20;;
31760;SDS011;18335;51.486;7.562;2024-02-26T11:42:22;8.55;;;4.07;;
31760;SDS011;18335;51.486;7.562;2024-02-26T11:44:50;10.88;;;4.80;;
31760;SDS011;18335;51.486;7.562;2024-02-26T11:47:19;11.80;;;4.93;;
31760;SDS011;18335;51.486;7.562;2024-02-26T11:49:47;11.73;;;5.90;;
31760;SDS011;18335;51.486;7.562;2024-02-26T11:52:14;9.52;;;5.10;;
31760;SDS011;18335;51.486;7.562;2024-02-26T11:54:45;8.15;;;3.70;;
31760;SDS011;18335;51.486;7.562;2024-02-26T11:57:25;10.25;;;3.88;;
31760;SDS011;18335;51.486;7.562;2024-02-26T11:59:54;9.13;;;3.63;;
31760;SDS011;18335;51.486;7.562;2024-02-26T12:05:11;11.57;;;4.20;;
31760;SDS011;18335;51.486;7.562;2024-02-26T12:07:39;7.85;;;3.80;;
31760;SDS011;18335;51.486;7.562;2024-02-26T12:13:03;12.75;;;5.10;;
31760;SDS011;18335;51.486;7.562;2024-02-26T12:15:33;14.35;;;4.57;;
31760;SDS011;18335;51.486;7.562;2024-02-26T12:18:04;9.85;;;4.47;;
31760;SDS011;18335;51.486;7.562;2024-02-26T12:20:33;12.63;;;5.18;;
31760;SDS011;18335;51.486;7.562;2024-02-26T12:23:01;9.10;;;4.85;;
31760;SDS011;18335;51.486;7.562;2024-02-26T12:25:29;11.55;;;4.90;;
31760;SDS011;18335;51.486;7.562;2024-02-26T12:27:58;10.10;;;4.93;;
31760;SDS011;18335;51.486;7.562;2024-02-26T12:30:25;12.45;;;6.13;;
31760;SDS011;18335;51.486;7.562;2024-02-26T12:32:59;8.68;;;4.80;;
31760;SDS011;18335;51.486;7.562;2024-02-26T12:35:29;10.82;;;5.95;;
31760;SDS011;18335;51.486;7.562;2024-02-26T12:37:57;10.88;;;4.90;;
31760;SDS011;18335;51.486;7.562;2024-02-26T12:40:24;12.35;;;5.38;;
31760;SDS011;18335;51.486;7.562;2024-02-26T12:42:52;12.45;;;5.70;;
31760;SDS011;18335;51.486;7.562;2024-02-26T12:45:20;11.88;;;5.90;;
31760;SDS011;18335;51.486;7.562;2024-02-26T12:47:47;12.00;;;5.30;;
31760;SDS011;18335;51.486;7.562;2024-02-26T12:50:15;10.82;;;5.78;;
31760;SDS011;18335;51.486;7.562;2024-02-26T12:52:44;11.88;;;6.68;;
31760;SDS011;18335;51.486;7.562;2024-02-26T12:55:13;13.10;;;6.57;;
31760;SDS011;18335;51.486;7.562;2024-02-26T12:57:41;11.93;;;5.85;;
31760;SDS011;18335;51.486;7.562;2024-02-26T13:00:11;12.10;;;6.45;;
31760;SDS011;18335;51.486;7.562;2024-02-26T13:02:40;13.25;;;6.43;;
31760;SDS011;18335;51.486;7.562;2024-02-26T13:05:08;13.95;;;5.35;;
31760;SDS011;18335;51.486;7.562;2024-02-26T13:07:40;13.63;;;6.65;;
31760;SDS011;18335;51.486;7.562;2024-02-26T13:10:09;13.45;;;6.18;;
31760;SDS011;18335;51.486;7.562;2024-02-26T13:12:38;11.80;;;6.10;;
31760;SDS011;18335;51.486;7.562;2024-02-26T13:15:13;11.77;;;5.38;;
31760;SDS011;18335;51.486;7.562;2024-02-26T13:17:41;12.50;;;5.57;;
31760;SDS011;18335;51.486;7.562;2024-02-26T13:20:08;10.73;;;5.20;;
31760;SDS011;18335;51.486;7.562;2024-02-26T13:22:35;11.95;;;6.00;;
31760;SDS011;18335;51.486;7.562;2024-02-26T13:25:02;11.25;;;5.75;;
31760;SDS011;18335;51.486;7.562;2024-02-26T13:27:31;11.85;;;5.43;;
31760;SDS011;18335;51.486;7.562;2024-02-26T13:30:04;10.45;;;4.93;;
31760;SDS011;18335;51.486;7.562;2024-02-26T13:32:35;13.05;;;5.47;;
31760;SDS011;18335;51.486;7.562;2024-02-26T13:35:07;13.05;;;5.10;;
31760;SDS011;18335;51.486;7.562;2024-02-26T13:37:35;11.60;;;5.40;;
31760;SDS011;18335;51.486;7.562;2024-02-26T13:40:04;8.98;;;4.78;;
31760;SDS011;18335;51.486;7.562;2024-02-26T13:42:33;12.57;;;6.28;;
31760;SDS011;18335;51.486;7.562;2024-02-26T13:44:59;9.82;;;4.82;;
31760;SDS011;18335;51.486;7.562;2024-02-26T13:47:26;11.90;;;5.80;;
31760;SDS011;18335;51.486;7.562;2024-02-26T13:49:53;12.30;;;5.38;;
31760;SDS011;18335;51.486;7.562;2024-02-26T13:52:20;12.80;;;5.38;;
31760;SDS011;18335;51.486;7.562;2024-02-26T13:54:46;10.82;;;5.43;;
31760;SDS011;18335;51.486;7.562;2024-02-26T13:57:13;11.93;;;5.13;;
31760;SDS011;18335;51.486;7.562;2024-02-26T13:59:41;11.07;;;4.93;;
31760;SDS011;18335;51.486;7.562;2024-02-26T14:02:08;11.48;;;4.82;;
31760;SDS011;18335;51.486;7.562;2024-02-26T14:04:35;11.18;;;4.90;;
31760;SDS011;18335;51.486;7.562;2024-02-26T14:07:02;10.27;;;5.22;;
31760;SDS011;18335;51.486;7.562;2024-02-26T14:09:29;12.93;;;5.43;;
31760;SDS011;18335;51.486;7.562;2024-02-26T14:11:57;12.30;;;5.32;;
31760;SDS011;18335;51.486;7.562;2024-02-26T14:14:24;10.98;;;5.45;;
31760;SDS011;18335;51.486;7.562;2024-02-26T14:16:52;10.30;;;5.15;;
31760;SDS011;18335;51.486;7.562;2024-02-26T14:19:19;10.30;;;4.93;;
31760;SDS011;18335;51.486;7.562;2024-02-26T14:21:45;13.45;;;5.80;;
31760;SDS011;18335;51.486;7.562;2024-02-26T14:24:12;11.00;;;5.30;;
31760;SDS011;18335;51.486;7.562;2024-02-26T14:26:39;13.15;;;5.72;;
31760;SDS011;18335;51.486;7.562;2024-02-26T14:29:07;12.18;;;5.65;;
31760;SDS011;18335;51.486;7.562;2024-02-26T14:31:33;11.15;;;5.70;;
31760;SDS011;18335;51.486;7.562;2024-02-26T14:34:01;16.23;;;7.53;;
31760;SDS011;18335;51.486;7.562;2024-02-26T14:36:28;12.00;;;6.28;;
31760;SDS011;18335;51.486;7.562;2024-02-26T14:38:55;12.50;;;6.18;;
31760;SDS011;18335;51.486;7.562;2024-02-26T14:41:22;10.77;;;5.57;;
31760;SDS011;18335;51.486;7.562;2024-02-26T14:43:48;11.80;;;5.63;;
31760;SDS011;18335;51.486;7.562;2024-02-26T14:46:15;11.63;;;5.25;;
31760;SDS011;18335;51.486;7.562;2024-02-26T14:48:42;11.23;;;5.72;;
31760;SDS011;18335;51.486;7.562;2024-02-26T14:51:10;9.73;;;5.38;;